Time;durP1;ratioP1;P1;durP2;ratioP2;P2;SDS_P1;SDS_P2;PMS_P1;PMS_P2;Temp;Humidity;BMP_temperature;BMP_pressure;BME280_temperature;BME280_humidity;BME280_pressure;Samples;Min_cycle;Max_cycle;Signal;HPM_P1;HPM_P2
2021/12/07 00:00:37;;;;;;;9.95;7.75;;;4.40;99.90;;;;;;1883173;75;21114;-84
2021/12/07 00:03:47;;;;;;;8.30;7.08;;;4.40;99.90;;;;;;1899140;75;21076;-84
2021/12/07 00:06:39;;;;;;;10.72;7.45;;;4.40;99.90;;;;;;1886956;73;21047;-85
2021/12/07 00:09:31;;;;;;;9.50;7.70;;;4.40;99.90;;;;;;1897458;75;21205;-85
2021/12/07 00:17:46;;;;;;;9.38;7.75;;;4.40;99.90;;;;;;1947136;72;22359;-86
2021/12/07 00:20:38;;;;;;;10.15;8.18;;;4.40;99.90;;;;;;1873513;75;21096;-86
2021/12/07 00:23:29;;;;;;;9.40;7.33;;;4.40;99.90;;;;;;1858440;77;21109;-86
2021/12/07 00:26:21;;;;;;;10.58;8.30;;;4.50;99.90;;;;;;1895493;75;21071;-86
2021/12/07 00:29:31;;;;;;;9.43;7.50;;;4.50;99.90;;;;;;1894795;75;21275;-85
2021/12/07 00:32:27;;;;;;;9.88;7.37;;;4.50;99.90;;;;;;1891540;75;21051;-85
2021/12/07 00:35:33;;;;;;;11.88;8.43;;;4.50;99.90;;;;;;1878539;75;21062;-85
2021/12/07 00:38:15;;;;;;;9.80;7.62;;;4.50;99.90;;;;;;1892633;75;21048;-85
2021/12/07 00:41:07;;;;;;;7.95;6.95;;;4.40;99.90;;;;;;1896409;75;21320;-85
2021/12/07 00:43:58;;;;;;;8.98;6.92;;;4.40;99.90;;;;;;1883172;75;21111;-86
2021/12/07 00:46:51;;;;;;;10.15;7.45;;;4.50;99.90;;;;;;1885934;76;21127;-86
2021/12/07 00:49:43;;;;;;;9.65;7.45;;;4.60;99.90;;;;;;1884533;75;21047;-85
2021/12/07 00:52:35;;;;;;;9.28;6.62;;;4.50;99.90;;;;;;1858836;77;21109;-85
2021/12/07 00:55:29;;;;;;;7.92;6.45;;;4.40;99.90;;;;;;1897441;75;21048;-85
2021/12/07 00:58:24;;;;;;;6.62;5.62;;;4.40;99.90;;;;;;1894453;75;21204;-85
2021/12/07 01:03:55;;;;;;;5.62;4.72;;;4.40;99.90;;;;;;1947243;72;22188;-86
2021/12/07 01:06:59;;;;;;;5.03;4.40;;;4.40;99.90;;;;;;1907735;74;21071;-85
2021/12/07 01:24:39;;;;;;;6.05;4.33;;;4.40;99.90;;;;;;1918707;74;21479;-85
2021/12/07 01:27:38;;;;;;;11.90;9.33;;;4.40;99.90;;;;;;1877360;75;21114;-85
2021/12/07 01:33:26;;;;;;;10.28;8.78;;;4.30;99.90;;;;;;1937308;72;22118;-85
2021/12/07 01:36:23;;;;;;;9.65;8.38;;;4.30;99.90;;;;;;1893175;75;21163;-85
2021/12/07 01:57:55;;;;;;;10.45;8.18;;;4.00;99.90;;;;;;1928181;74;21140;-85
2021/12/07 02:00:46;;;;;;;10.00;7.95;;;4.00;99.90;;;;;;1902454;74;21179;-84
2021/12/07 02:03:39;;;;;;;9.30;8.03;;;4.00;99.90;;;;;;1890777;74;21067;-85
2021/12/07 02:06:50;;;;;;;11.35;8.43;;;3.90;99.90;;;;;;1894763;74;21140;-85
2021/12/07 02:09:48;;;;;;;10.18;8.33;;;3.90;99.90;;;;;;1917152;74;21122;-85
2021/12/07 02:12:43;;;;;;;10.13;8.98;;;3.90;99.90;;;;;;1873192;76;21072;-84
2021/12/07 02:15:34;;;;;;;;;;;3.90;99.90;;;;;;1877287;74;21117;-84
2021/12/07 02:18:26;;;;;;;8.55;7.10;;;3.90;99.90;;;;;;1918015;74;20154;-85
2021/12/07 02:21:22;;;;;;;8.38;6.80;;;3.80;99.90;;;;;;1883971;74;21072;-84
2021/12/07 02:24:17;;;;;;;9.50;6.72;;;3.70;99.90;;;;;;1875539;76;21076;-85
2021/12/07 02:27:09;;;;;;;8.75;7.17;;;3.70;99.90;;;;;;1873570;76;21063;-84
2021/12/07 02:47:17;;;;;;;7.72;6.30;;;3.60;99.90;;;;;;1935566;72;22174;-85
2021/12/07 02:52:49;;;;;;;6.87;5.65;;;3.60;99.90;;;;;;1945632;72;22237;-85
2021/12/07 02:55:41;;;;;;;7.72;5.65;;;3.60;99.90;;;;;;1910042;74;21165;-85
2021/12/07 02:58:35;;;;;;;6.25;4.95;;;3.50;99.90;;;;;;1916659;74;21091;-84
2021/12/07 03:01:32;;;;;;;4.70;4.12;;;3.60;99.90;;;;;;1931994;74;21139;-85
2021/12/07 03:07:40;;;;;;;4.33;3.50;;;3.40;99.90;;;;;;1947491;72;22178;-85
2021/12/07 03:28:31;;;;;;;5.25;4.40;;;3.00;99.90;;;;;;1958394;72;22171;-85
2021/12/07 03:31:25;;;;;;;5.60;4.28;;;2.90;99.90;;;;;;1884805;75;21091;-85
2021/12/07 03:34:16;;;;;;;4.92;3.55;;;2.90;99.90;;;;;;1894349;75;21558;-85
2021/12/07 03:37:09;;;;;;;4.17;3.37;;;2.80;99.90;;;;;;1890610;75;21202;-85
2021/12/07 03:43:03;;;;;;;3.98;3.45;;;2.80;99.90;;;;;;1944314;72;22245;-85
2021/12/07 03:45:54;;;;;;;4.45;3.60;;;2.90;99.90;;;;;;1926043;74;21132;-85
2021/12/07 03:48:46;;;;;;;5.45;3.77;;;2.90;99.90;;;;;;1915556;74;21075;-85
2021/12/07 03:54:16;;;;;;;4.92;3.60;;;2.90;99.90;;;;;;1937350;72;22751;-85
2021/12/07 03:57:08;;;;;;;4.85;3.75;;;3.00;99.90;;;;;;1894831;75;21180;-85
2021/12/07 04:02:40;;;;;;;4.87;3.90;;;3.00;99.90;;;;;;1976279;72;22142;-85
2021/12/07 04:05:32;;;;;;;4.72;4.22;;;3.00;99.90;;;;;;1921959;73;21094;-84
2021/12/07 04:08:27;;;;;;;5.40;4.62;;;3.00;99.90;;;;;;1917177;75;21113;-85
2021/12/07 04:11:20;;;;;;;5.00;4.17;;;3.00;99.90;;;;;;1913270;74;21127;-84
2021/12/07 04:17:09;;;;;;;5.30;4.67;;;3.00;99.90;;;;;;1958208;72;22212;-85
2021/12/07 04:22:48;;;;;;;6.08;5.35;;;3.00;99.90;;;;;;1953091;72;22174;-85
2021/12/07 04:28:17;;;;;;;9.55;7.87;;;3.20;99.90;;;;;;1936806;72;22188;-85
2021/12/07 04:31:09;;;;;;;9.68;7.97;;;3.20;99.90;;;;;;1898277;75;21064;-85
2021/12/07 04:34:01;;;;;;;10.43;8.55;;;3.30;99.90;;;;;;1885284;75;21145;-85
2021/12/07 04:36:52;;;;;;;10.45;8.23;;;3.30;99.90;;;;;;1902214;75;21051;-84
2021/12/07 04:42:45;;;;;;;8.80;7.90;;;3.30;99.90;;;;;;1950353;72;22131;-85
2021/12/07 04:45:49;;;;;;;9.03;7.55;;;3.30;99.90;;;;;;1885218;75;21118;-85
2021/12/07 04:57:44;;;;;;;10.40;7.92;;;3.30;99.90;;;;;;1873379;75;21133;-85
2021/12/07 05:00:32;;;;;;;9.08;7.15;;;3.40;99.90;;;;;;1901088;75;21103;-86
2021/12/07 05:03:26;;;;;;;10.25;7.87;;;3.50;99.90;;;;;;1894414;75;21098;-85
2021/12/07 05:06:41;;;;;;;10.95;7.95;;;3.40;99.90;;;;;;1896197;75;21331;-85
2021/12/07 05:15:33;;;;;;;7.95;6.33;;;3.40;99.90;;;;;;1964982;72;22185;-85
2021/12/07 05:18:37;;;;;;;8.30;6.90;;;3.40;99.90;;;;;;1917625;75;21183;-85
2021/12/07 05:23:59;;;;;;;9.53;6.47;;;3.20;99.90;;;;;;1955230;72;22256;-85
2021/12/07 05:39:48;;;;;;;8.80;5.92;;;3.30;99.90;;;;;;1895120;75;21168;-85
2021/12/07 05:42:41;;;;;;;7.03;5.33;;;3.30;99.90;;;;;;1911768;75;21117;-85
2021/12/07 05:45:35;;;;;;;9.05;6.17;;;3.30;99.90;;;;;;1894952;75;21074;-85
2021/12/07 05:48:26;;;;;;;8.38;5.78;;;3.30;99.90;;;;;;1902902;75;21546;-85
2021/12/07 05:51:18;;;;;;;8.58;6.40;;;3.30;99.90;;;;;;1899214;75;21094;-85
2021/12/07 05:54:11;;;;;;;8.90;6.70;;;3.20;99.90;;;;;;1909727;75;21162;-85
2021/12/07 05:57:02;;;;;;;9.03;7.12;;;3.20;99.90;;;;;;1910476;75;21047;-84
2021/12/07 06:02:32;;;;;;;10.48;8.15;;;3.30;99.90;;;;;;1966254;72;22327;-85
2021/12/07 06:08:06;;;;;;;11.48;7.87;;;3.30;99.90;;;;;;1929301;72;22147;-85
2021/12/07 06:11:00;;;;;;;11.38;7.83;;;3.30;99.90;;;;;;1888763;75;21071;-85
2021/12/07 06:13:52;;;;;;;14.45;9.63;;;3.30;99.90;;;;;;1904238;75;21125;-85
2021/12/07 06:16:43;;;;;;;13.45;9.55;;;3.30;99.90;;;;;;1883707;75;21131;-85
2021/12/07 06:22:31;;;;;;;11.83;9.48;;;3.30;99.90;;;;;;1942980;72;22291;-86
2021/12/07 06:25:22;;;;;;;11.73;8.78;;;3.30;99.90;;;;;;1930273;73;21203;-85
2021/12/07 06:28:15;;;;;;;10.70;8.15;;;3.30;99.90;;;;;;1917653;75;21110;-85
2021/12/07 06:31:06;;;;;;;10.10;8.18;;;3.30;99.90;;;;;;1918789;73;21186;-85
2021/12/07 06:34:16;;;;;;;10.88;8.93;;;3.30;99.90;;;;;;1939945;73;21526;-84
2021/12/07 06:37:08;;;;;;;11.03;8.88;;;3.30;99.90;;;;;;1930134;73;21052;-85
2021/12/07 06:42:40;;;;;;;12.35;8.63;;;3.30;99.90;;;;;;1941221;72;22098;-85
2021/12/07 06:48:14;;;;;;;8.50;7.22;;;3.40;99.90;;;;;;1942790;72;22138;-86
2021/12/07 06:51:07;;;;;;;11.57;8.28;;;3.40;99.90;;;;;;1908159;73;21129;-84
2021/12/07 06:54:00;;;;;;;12.07;9.38;;;3.40;99.90;;;;;;1896766;73;21214;-84
2021/12/07 06:56:52;;;;;;;15.20;12.05;;;3.40;99.90;;;;;;1907150;75;21119;-84
2021/12/07 07:00:02;;;;;;;12.47;9.00;;;3.40;99.90;;;;;;1904720;75;21102;-85
2021/12/07 07:02:54;;;;;;;10.63;8.43;;;3.50;99.90;;;;;;1916128;74;21133;-84
2021/12/07 07:05:47;;;;;;;10.28;8.60;;;3.50;99.90;;;;;;1923269;74;21070;-85
2021/12/07 07:08:38;;;;;;;13.15;8.95;;;3.50;99.90;;;;;;1913091;74;21103;-85
2021/12/07 07:11:30;;;;;;;16.95;9.88;;;3.50;99.90;;;;;;1884968;75;21366;-85
2021/12/07 07:14:22;;;;;;;13.72;8.65;;;3.50;99.90;;;;;;1902010;73;21137;-84
2021/12/07 07:19:52;;;;;;;11.05;8.23;;;3.50;99.90;;;;;;1951445;72;22268;-85
2021/12/07 07:28:03;;;;;;;13.35;9.35;;;3.40;99.90;;;;;;1934186;72;22233;-85
2021/12/07 07:30:56;;;;;;;12.18;9.65;;;3.40;99.90;;;;;;1892586;75;21126;-85
2021/12/07 07:33:48;;;;;;;12.60;10.25;;;3.40;99.90;;;;;;1910791;73;21125;-85
2021/12/07 07:42:35;;;;;;;14.18;10.98;;;3.50;99.90;;;;;;1937278;72;22197;-85
2021/12/07 07:45:32;;;;;;;13.95;10.98;;;3.40;99.90;;;;;;1824689;77;21578;-86
2021/12/07 07:48:24;;;;;;;14.35;11.08;;;3.30;99.90;;;;;;1889564;75;21526;-85
2021/12/07 07:53:56;;;;;;;15.95;10.13;;;3.50;99.90;;;;;;1950901;72;22272;-85
2021/12/07 07:56:48;;;;;;;13.62;10.10;;;3.50;99.90;;;;;;1844962;76;21142;-86
2021/12/07 07:59:40;;;;;;;14.85;10.95;;;3.50;99.90;;;;;;1899683;75;21068;-86
2021/12/07 08:02:31;;;;;;;17.67;12.05;;;3.50;99.90;;;;;;1904348;75;21070;-85
2021/12/07 08:05:41;;;;;;;19.92;14.65;;;3.50;99.90;;;;;;1904671;75;21106;-86
2021/12/07 08:08:34;;;;;;;18.12;14.28;;;3.50;99.90;;;;;;1904260;75;21084;-85
2021/12/07 08:11:27;;;;;;;18.40;12.98;;;3.50;99.90;;;;;;1904658;75;21153;-85
2021/12/07 08:14:18;;;;;;;16.50;12.78;;;3.50;99.90;;;;;;1904871;74;21114;-85
2021/12/07 08:19:49;;;;;;;11.73;9.65;;;3.50;99.90;;;;;;1951961;72;22166;-86
2021/12/07 08:22:40;;;;;;;12.75;9.45;;;3.60;99.90;;;;;;1925529;74;21164;-85
2021/12/07 08:28:14;;;;;;;13.98;9.13;;;3.60;99.90;;;;;;1945576;72;22176;-85
2021/12/07 08:31:06;;;;;;;10.80;8.50;;;3.70;99.90;;;;;;1927094;73;21137;-85
2021/12/07 08:33:57;;;;;;;10.70;8.18;;;3.80;99.90;;;;;;1917189;75;21060;-86
2021/12/07 08:36:50;;;;;;;13.40;9.03;;;3.70;99.90;;;;;;1934226;73;21051;-85
2021/12/07 08:42:39;;;;;;;11.60;8.40;;;3.80;99.90;;;;;;1955639;72;22147;-87
2021/12/07 08:45:32;;;;;;;13.25;9.43;;;3.90;99.90;;;;;;1905752;73;21114;-86
2021/12/07 08:48:24;;;;;;;11.68;8.73;;;3.90;99.90;;;;;;1915124;73;21125;-86
2021/12/07 08:51:18;;;;;;;13.25;9.18;;;3.80;99.90;;;;;;1893028;75;21161;-86
2021/12/07 08:59:35;;;;;;;10.72;8.35;;;3.90;99.90;;;;;;1883112;75;21086;-87
2021/12/07 09:00:32;;;;;;;12.05;8.18;;;3.90;99.90;;;;;;1849745;77;21096;-87
2021/12/07 09:03:27;;;;;;;13.30;8.88;;;3.90;99.90;;;;;;1931238;73;21102;-86
2021/12/07 09:06:19;;;;;;;11.60;9.13;;;3.90;99.90;;;;;;1891581;74;21098;-87
2021/12/07 09:09:11;;;;;;;12.23;9.13;;;4.00;99.90;;;;;;1884193;74;21199;-86
2021/12/07 09:12:05;;;;;;;10.95;9.08;;;4.10;99.90;;;;;;1898269;75;21131;-88
2021/12/07 09:14:57;;;;;;;17.67;11.88;;;4.00;99.90;;;;;;1921002;73;21195;-86
2021/12/07 09:17:49;;;;;;;12.58;8.68;;;4.10;99.90;;;;;;1918418;73;21164;-86
2021/12/07 09:23:20;;;;;;;12.03;8.83;;;4.20;99.90;;;;;;1950896;72;22342;-87
2021/12/07 09:26:11;;;;;;;10.50;7.87;;;4.20;99.90;;;;;;1891443;75;21110;-86
2021/12/07 09:29:04;;;;;;;10.38;7.85;;;4.20;99.90;;;;;;1886864;75;21106;-86
2021/12/07 09:34:39;;;;;;;13.32;9.65;;;4.20;99.90;;;;;;1950782;72;22193;-87
2021/12/07 09:37:30;;;;;;;9.80;7.53;;;4.20;99.90;;;;;;1903907;75;21114;-87
2021/12/07 09:40:28;;;;;;;10.50;7.97;;;4.20;99.90;;;;;;1873009;76;21176;-87
2021/12/07 09:43:20;;;;;;;10.20;7.87;;;4.20;99.90;;;;;;1872549;76;21119;-87
2021/12/07 09:46:30;;;;;;;9.73;8.28;;;4.20;99.90;;;;;;1886212;75;21047;-87
2021/12/07 09:49:23;;;;;;;9.90;8.43;;;4.10;99.90;;;;;;1875129;75;21111;-86
2021/12/07 09:52:14;;;;;;;11.20;8.93;;;4.10;99.90;;;;;;1897532;75;21117;-88
2021/12/07 09:55:08;;;;;;;10.18;8.95;;;4.20;99.90;;;;;;1892985;75;21104;-86
2021/12/07 09:58:00;;;;;;;15.18;10.23;;;4.20;99.90;;;;;;1890140;75;21092;-86
2021/12/07 10:00:53;;;;;;;14.98;9.78;;;4.20;99.90;;;;;;1894837;75;21059;-86
2021/12/07 10:03:45;;;;;;;12.88;9.40;;;4.10;99.90;;;;;;1894491;75;21063;-86
2021/12/07 10:06:37;;;;;;;13.48;9.78;;;4.10;99.90;;;;;;1872962;75;21082;-87
2021/12/07 10:09:29;;;;;;;13.20;9.35;;;4.20;99.90;;;;;;1889269;75;21135;-86
2021/12/07 10:12:22;;;;;;;11.95;9.10;;;4.30;99.90;;;;;;1883950;75;21204;-86
2021/12/07 10:15:15;;;;;;;12.75;10.40;;;4.40;99.90;;;;;;1876630;75;21107;-86
2021/12/07 10:18:10;;;;;;;13.35;9.45;;;4.40;99.90;;;;;;1858308;77;21082;-86
2021/12/07 10:21:05;;;;;;;13.32;9.78;;;4.50;99.90;;;;;;1892387;75;21063;-86
2021/12/07 10:24:22;;;;;;;11.78;10.18;;;4.60;99.90;;;;;;1872570;76;21205;-87
2021/12/07 10:27:36;;;;;;;14.00;9.85;;;4.60;99.90;;;;;;1872949;76;21114;-87
2021/12/07 10:30:29;;;;;;;11.43;9.50;;;4.70;99.90;;;;;;1872921;76;21155;-86
2021/12/07 10:33:30;;;;;;;11.90;9.08;;;4.80;99.90;;;;;;1894398;75;21062;-86
2021/12/07 10:36:25;;;;;;;12.53;9.93;;;4.80;99.90;;;;;;1894357;75;21107;-86
2021/12/07 10:39:23;;;;;;;12.55;9.75;;;4.90;99.90;;;;;;1875965;75;21099;-88
2021/12/07 10:42:17;;;;;;;14.95;11.53;;;5.00;99.90;;;;;;1883946;75;21125;-86
2021/12/07 10:45:11;;;;;;;16.80;13.10;;;5.00;99.90;;;;;;1888649;75;21067;-86
2021/12/07 10:48:20;;;;;;;15.58;12.70;;;5.00;99.90;;;;;;1883969;75;21107;-86
2021/12/07 10:51:13;;;;;;;17.98;14.60;;;5.00;99.90;;;;;;1872370;75;21058;-87
2021/12/07 10:54:05;;;;;;;14.05;10.50;;;5.00;99.90;;;;;;1876375;75;21080;-87
2021/12/07 10:56:59;;;;;;;16.95;12.88;;;5.10;99.90;;;;;;1883079;75;21091;-86
2021/12/07 10:59:58;;;;;;;17.67;12.30;;;5.10;99.90;;;;;;1886923;75;21055;-87
2021/12/07 11:05:34;;;;;;;19.17;14.45;;;5.10;99.90;;;;;;1937582;72;22236;-86
2021/12/07 11:08:33;;;;;;;16.73;12.45;;;5.20;99.90;;;;;;1816972;77;21148;-86
2021/12/07 11:11:29;;;;;;;19.17;12.35;;;5.20;99.90;;;;;;1849699;77;21169;-85
2021/12/07 11:14:21;;;;;;;14.30;11.30;;;5.10;99.90;;;;;;1872731;75;21068;-85
2021/12/07 11:17:34;;;;;;;13.05;10.68;;;5.10;99.90;;;;;;1888375;75;21086;-86
2021/12/07 11:20:31;;;;;;;14.28;11.10;;;5.20;99.90;;;;;;1884538;75;21114;-85
2021/12/07 11:23:26;;;;;;;15.98;11.03;;;5.20;99.90;;;;;;1883270;75;21161;-86
2021/12/07 11:29:44;;;;;;;13.53;9.70;;;5.30;99.90;;;;;;1903598;75;21054;-87
2021/12/07 11:32:36;;;;;;;12.70;9.80;;;5.40;99.90;;;;;;1893782;75;21164;-86
2021/12/07 11:35:32;;;;;;;13.98;10.53;;;5.50;99.90;;;;;;1889055;75;21049;-86
2021/12/07 11:38:31;;;;;;;14.63;11.10;;;5.60;99.90;;;;;;1872736;76;21132;-86
2021/12/07 11:41:25;;;;;;;12.47;9.50;;;5.70;99.90;;;;;;1894363;75;21043;-86
2021/12/07 11:44:17;;;;;;;14.65;10.78;;;5.80;99.90;;;;;;1872829;76;21118;-87
2021/12/07 11:47:08;;;;;;;9.83;8.10;;;5.80;99.90;;;;;;1893522;75;21192;-86
2021/12/07 11:50:03;;;;;;;12.37;8.65;;;5.90;99.90;;;;;;1888494;75;21048;-87
2021/12/07 11:52:59;;;;;;;9.20;6.95;;;5.90;99.90;;;;;;1884545;75;21127;-85
2021/12/07 11:56:08;;;;;;;18.45;13.15;;;6.10;99.90;;;;;;1901055;75;21157;-86
2021/12/07 11:59:19;;;;;;;10.72;8.60;;;6.10;99.90;;;;;;1816319;78;21157;-86
2021/12/07 12:02:11;;;;;;;11.25;8.60;;;6.20;99.90;;;;;;1835277;77;21079;-86
2021/12/07 12:05:04;;;;;;;9.98;8.30;;;6.20;99.90;;;;;;1886660;75;21212;-86
2021/12/07 12:07:56;;;;;;;10.10;8.25;;;6.20;99.90;;;;;;1905104;75;21083;-86
2021/12/07 12:10:51;;;;;;;9.70;8.35;;;6.20;99.90;;;;;;1884848;75;21043;-85
2021/12/07 12:13:46;;;;;;;9.95;7.95;;;6.20;99.90;;;;;;1897840;75;21098;-87
2021/12/07 12:16:44;;;;;;;10.65;7.75;;;6.30;99.90;;;;;;1876460;75;21166;-87
2021/12/07 12:19:42;;;;;;;10.93;7.20;;;6.30;99.90;;;;;;1883134;75;21192;-86
2021/12/07 12:22:37;;;;;;;9.20;7.30;;;6.40;99.90;;;;;;1890437;75;21157;-86
2021/12/07 12:25:30;;;;;;;9.05;6.80;;;6.40;99.90;;;;;;1904381;75;21094;-86
2021/12/07 12:28:27;;;;;;;8.48;6.50;;;6.50;99.90;;;;;;1882883;75;21101;-86
2021/12/07 12:31:21;;;;;;;9.13;5.83;;;6.60;99.90;;;;;;1882742;75;21117;-86
2021/12/07 12:34:19;;;;;;;8.98;6.70;;;6.70;99.90;;;;;;1882876;75;21051;-87
2021/12/07 12:37:13;;;;;;;7.15;5.55;;;6.80;99.90;;;;;;1899521;75;21098;-86
2021/12/07 12:40:06;;;;;;;7.45;5.75;;;7.00;99.90;;;;;;1885851;75;21098;-87
2021/12/07 12:43:00;;;;;;;6.30;5.60;;;6.90;99.90;;;;;;1895265;75;21133;-87
2021/12/07 12:45:54;;;;;;;7.35;5.25;;;7.00;99.90;;;;;;1893719;75;21047;-87
2021/12/07 12:48:49;;;;;;;7.15;5.37;;;7.10;99.90;;;;;;1872129;75;21057;-87
2021/12/07 12:51:47;;;;;;;6.45;5.58;;;7.20;99.90;;;;;;1888503;75;21044;-86
2021/12/07 12:54:43;;;;;;;12.18;8.08;;;7.30;99.90;;;;;;1897414;75;21192;-87
2021/12/07 12:57:36;;;;;;;10.10;7.37;;;7.30;99.90;;;;;;1893838;75;21084;-87
2021/12/07 13:00:45;;;;;;;8.78;6.72;;;7.30;99.90;;;;;;1894395;75;21064;-86
2021/12/07 13:03:56;;;;;;;46.60;33.50;;;7.40;99.90;;;;;;1894063;75;21139;-86
2021/12/07 13:07:00;;;;;;;10.88;7.65;;;7.40;99.90;;;;;;1900197;75;21079;-86
2021/12/07 13:09:47;;;;;;;9.48;5.83;;;7.40;99.90;;;;;;1877394;76;21173;-86
2021/12/07 13:12:41;;;;;;;7.00;5.65;;;7.50;99.90;;;;;;1892323;75;21047;-86
2021/12/07 13:15:40;;;;;;;6.27;5.10;;;7.50;99.90;;;;;;1899745;75;21113;-86
2021/12/07 13:18:32;;;;;;;5.62;4.50;;;7.50;99.90;;;;;;1900096;75;21206;-87
2021/12/07 13:21:29;;;;;;;6.47;4.70;;;7.50;99.90;;;;;;1903641;75;21067;-86
2021/12/07 13:24:31;;;;;;;6.28;4.83;;;7.50;99.90;;;;;;1888672;75;21055;-86
2021/12/07 13:27:23;;;;;;;12.68;7.05;;;7.50;99.90;;;;;;1896672;75;21173;-86
2021/12/07 13:30:16;;;;;;;10.75;8.05;;;7.50;99.90;;;;;;1889240;75;21161;-86
2021/12/07 13:33:14;;;;;;;8.90;6.90;;;7.40;99.90;;;;;;1889371;75;21051;-86
2021/12/07 13:36:30;;;;;;;9.88;6.97;;;7.30;99.90;;;;;;1889444;75;21177;-86
2021/12/07 13:39:48;;;;;;;8.60;6.92;;;7.10;99.90;;;;;;1889552;75;21063;-86
2021/12/07 13:42:42;;;;;;;7.33;6.27;;;6.80;99.90;;;;;;1889016;75;21055;-86
2021/12/07 13:45:36;;;;;;;10.18;7.55;;;6.80;99.90;;;;;;1889234;75;21102;-86
2021/12/07 13:48:29;;;;;;;8.95;6.50;;;6.80;99.90;;;;;;1909850;74;21055;-86
2021/12/07 13:51:22;;;;;;;8.80;7.08;;;6.90;99.90;;;;;;1890652;75;21088;-86
2021/12/07 13:54:19;;;;;;;9.58;6.97;;;6.90;99.90;;;;;;1888001;75;21213;-85
2021/12/07 13:57:16;;;;;;;11.08;7.50;;;6.80;99.90;;;;;;1883874;75;21052;-85
2021/12/07 14:00:16;;;;;;;10.43;8.35;;;6.90;99.90;;;;;;1878751;75;21140;-85
2021/12/07 14:03:11;;;;;;;11.05;7.62;;;6.90;99.90;;;;;;1878419;76;21118;-87
2021/12/07 14:06:03;;;;;;;45.55;28.95;;;6.90;99.90;;;;;;1889911;75;21562;-87
2021/12/07 14:09:05;;;;;;;11.97;8.65;;;7.00;99.90;;;;;;1895939;75;21095;-86
2021/12/07 14:12:02;;;;;;;9.43;7.55;;;7.00;99.90;;;;;;1895321;75;21091;-86
2021/12/07 14:14:53;;;;;;;16.80;8.80;;;7.10;99.90;;;;;;1896168;75;21075;-87
2021/12/07 14:17:48;;;;;;;11.22;7.35;;;7.10;99.90;;;;;;1892331;75;21196;-86
2021/12/07 14:20:42;;;;;;;8.73;7.42;;;7.10;99.90;;;;;;1885283;75;21124;-86
2021/12/07 14:23:36;;;;;;;11.05;8.43;;;7.00;99.90;;;;;;1881507;75;21101;-86
2021/12/07 14:26:28;;;;;;;12.07;7.00;;;7.00;99.90;;;;;;1881513;75;21165;-88
2021/12/07 14:29:23;;;;;;;9.83;6.55;;;7.00;99.90;;;;;;1882499;75;21168;-86
2021/12/07 14:32:15;;;;;;;6.87;5.87;;;7.10;99.90;;;;;;1887818;75;21095;-86
2021/12/07 14:35:07;;;;;;;8.80;6.90;;;7.00;99.90;;;;;;1887792;75;21110;-87
2021/12/07 14:38:00;;;;;;;7.47;5.42;;;7.00;99.90;;;;;;1895878;75;21215;-86
2021/12/07 14:43:31;;;;;;;12.03;7.75;;;6.90;99.90;;;;;;1958212;72;22272;-87
2021/12/07 14:46:25;;;;;;;7.85;4.60;;;6.90;99.90;;;;;;1896488;75;21672;-86
2021/12/07 14:49:18;;;;;;;8.40;6.17;;;6.80;99.90;;;;;;1894987;75;21058;-86
2021/12/07 14:52:14;;;;;;;9.38;7.42;;;6.80;99.90;;;;;;1895466;75;21063;-86
2021/12/07 14:55:24;;;;;;;10.65;7.25;;;6.70;99.90;;;;;;1895503;75;21143;-86
2021/12/07 14:58:16;;;;;;;42.67;10.08;;;6.60;99.90;;;;;;1898956;75;21058;-85
2021/12/07 15:01:10;;;;;;;40.63;10.25;;;6.50;99.90;;;;;;1897624;75;21139;-87
2021/12/07 15:04:05;;;;;;;30.75;9.28;;;6.50;99.90;;;;;;1895521;75;21550;-86
2021/12/07 15:07:01;;;;;;;17.80;8.85;;;6.50;99.90;;;;;;1913175;75;21114;-85
2021/12/07 15:09:53;;;;;;;14.58;7.12;;;6.60;99.90;;;;;;1906692;75;21095;-85
2021/12/07 15:12:47;;;;;;;17.20;7.50;;;6.60;99.90;;;;;;1901282;75;21110;-85
2021/12/07 15:15:41;;;;;;;9.23;6.37;;;6.60;99.90;;;;;;1896814;75;21106;-86
2021/12/07 15:18:38;;;;;;;9.80;7.20;;;6.50;99.90;;;;;;1859475;76;21054;-85
2021/12/07 15:21:30;;;;;;;10.03;6.80;;;6.60;99.90;;;;;;1895357;75;21051;-85
2021/12/07 15:24:24;;;;;;;10.10;6.75;;;6.50;99.90;;;;;;1896009;75;21568;-85
2021/12/07 15:27:17;;;;;;;11.03;6.70;;;6.50;99.90;;;;;;1884775;76;21066;-85
2021/12/07 15:30:10;;;;;;;14.75;7.90;;;6.50;99.90;;;;;;1884773;76;21160;-86
2021/12/07 15:33:20;;;;;;;12.30;7.45;;;6.50;99.90;;;;;;1895102;75;21123;-86
2021/12/07 15:36:33;;;;;;;8.35;7.08;;;6.60;99.90;;;;;;1895425;75;21083;-86
2021/12/07 15:39:26;;;;;;;10.38;6.75;;;6.60;99.90;;;;;;1895387;75;21220;-85
2021/12/07 15:42:20;;;;;;;11.75;7.83;;;6.60;99.90;;;;;;1895616;75;21066;-85
2021/12/07 15:45:14;;;;;;;13.68;7.33;;;6.60;99.90;;;;;;1899666;75;21555;-86
2021/12/07 15:48:07;;;;;;;10.65;7.58;;;6.60;99.90;;;;;;1872744;75;21073;-85
2021/12/07 15:51:02;;;;;;;11.55;8.13;;;6.60;99.90;;;;;;1880606;75;21161;-86
2021/12/07 15:53:56;;;;;;;13.85;8.05;;;6.60;99.90;;;;;;1894763;75;21099;-85
2021/12/07 15:56:57;;;;;;;11.80;7.75;;;6.60;99.90;;;;;;1896136;75;21145;-85
2021/12/07 15:59:59;;;;;;;14.70;9.08;;;6.60;99.90;;;;;;1883777;76;21254;-87
2021/12/07 16:02:56;;;;;;;13.03;9.10;;;6.60;99.90;;;;;;1886739;75;21107;-87
2021/12/07 16:05:48;;;;;;;;;;;6.60;99.90;;;;;;1919615;75;21059;-87
2021/12/07 16:08:39;;;;;;;16.57;8.43;;;6.60;99.90;;;;;;1910921;75;20154;-86
2021/12/07 16:11:33;;;;;;;98.25;20.75;;;6.70;99.90;;;;;;1906262;75;21095;-86
2021/12/07 16:14:30;;;;;;;11.43;8.20;;;6.70;99.90;;;;;;1872221;77;21060;-86
2021/12/07 16:17:23;;;;;;;12.68;8.60;;;6.80;99.90;;;;;;1898297;75;21095;-88
2021/12/07 16:20:16;;;;;;;17.75;10.55;;;6.70;99.90;;;;;;1894915;75;21131;-86
2021/12/07 16:23:09;;;;;;;11.33;8.33;;;6.80;99.90;;;;;;1890471;75;21102;-88
2021/12/07 16:26:04;;;;;;;15.48;8.73;;;6.70;99.90;;;;;;1906191;75;21054;-87
2021/12/07 16:28:59;;;;;;;20.70;10.45;;;6.70;99.90;;;;;;1887429;75;21181;-86
2021/12/07 16:31:51;;;;;;;9.98;7.12;;;6.70;99.90;;;;;;1896776;75;21197;-86
2021/12/07 16:34:43;;;;;;;10.53;5.20;;;6.70;99.90;;;;;;1894849;75;21047;-86
2021/12/07 16:37:35;;;;;;;11.12;6.55;;;6.60;99.90;;;;;;1894766;75;21421;-86
2021/12/07 16:40:27;;;;;;;8.08;6.50;;;6.70;99.90;;;;;;1916847;75;21055;-86
2021/12/07 16:43:20;;;;;;;31.82;17.10;;;6.70;99.90;;;;;;1889923;74;21086;-86
2021/12/07 16:46:13;;;;;;;7.50;5.53;;;6.70;99.90;;;;;;1904337;74;21055;-86
2021/12/07 16:49:06;;;;;;;9.05;4.97;;;6.90;99.90;;;;;;1904407;74;21198;-86
2021/12/07 16:51:58;;;;;;;7.83;4.58;;;6.90;99.90;;;;;;1904936;74;21138;-85
2021/12/07 16:54:51;;;;;;;9.58;5.70;;;6.90;99.90;;;;;;1893607;76;21066;-87
2021/12/07 16:57:45;;;;;;;7.80;6.00;;;6.90;99.90;;;;;;1893632;76;21072;-86
2021/12/07 17:00:38;;;;;;;10.78;7.45;;;6.90;99.90;;;;;;1915901;74;21361;-87
2021/12/07 17:03:30;;;;;;;11.30;8.20;;;6.90;99.90;;;;;;1895836;74;21062;-86
2021/12/07 17:06:22;;;;;;;12.15;7.42;;;6.90;99.90;;;;;;1906966;74;21557;-86
2021/12/07 17:09:16;;;;;;;8.28;5.28;;;6.80;99.90;;;;;;1907956;74;21168;-86
2021/12/07 17:12:08;;;;;;;5.97;4.12;;;6.80;99.90;;;;;;1916775;74;21179;-86
2021/12/07 17:15:00;;;;;;;8.08;4.78;;;6.90;99.90;;;;;;1915940;74;21124;-86
2021/12/07 17:17:53;;;;;;;8.33;4.95;;;6.90;99.90;;;;;;1914493;74;21591;-85
2021/12/07 17:20:46;;;;;;;8.20;5.28;;;6.90;99.90;;;;;;1909256;74;21129;-85
2021/12/07 17:23:53;;;;;;;7.08;5.22;;;6.90;99.90;;;;;;1903809;74;21110;-86
2021/12/07 17:26:49;;;;;;;7.42;5.70;;;6.90;99.90;;;;;;1904055;74;21095;-86
2021/12/07 17:29:40;;;;;;;10.10;6.83;;;6.90;99.90;;;;;;1899820;74;21203;-86
2021/12/07 17:32:32;;;;;;;9.55;7.03;;;6.90;99.90;;;;;;1893477;76;21174;-87
2021/12/07 17:35:25;;;;;;;12.88;8.20;;;6.90;99.90;;;;;;1910237;74;21094;-86
2021/12/07 17:38:19;;;;;;;8.83;5.80;;;6.90;99.90;;;;;;1905096;74;21143;-85
2021/12/07 17:41:11;;;;;;;7.15;5.00;;;6.80;99.90;;;;;;1904354;74;21062;-86
2021/12/07 17:44:02;;;;;;;8.55;4.85;;;6.80;99.90;;;;;;1915269;74;21059;-86
2021/12/07 17:46:56;;;;;;;9.43;4.80;;;6.80;99.90;;;;;;1890231;75;21095;-86
2021/12/07 17:49:48;;;;;;;10.82;6.65;;;6.70;99.90;;;;;;1897993;75;21102;-86
2021/12/07 17:52:41;;;;;;;7.97;5.47;;;6.80;99.90;;;;;;1895162;75;21054;-86
2021/12/07 17:55:33;;;;;;;8.13;4.90;;;6.80;99.90;;;;;;1894470;75;21221;-85
2021/12/07 18:06:26;;;;;;;5.85;4.17;;;6.80;99.90;;;;;;1871939;75;21168;-86
2021/12/07 18:09:19;;;;;;;6.33;4.30;;;6.80;99.90;;;;;;1873883;75;21091;-87
2021/12/07 18:12:12;;;;;;;7.37;4.25;;;6.80;99.90;;;;;;1905697;75;21098;-85
2021/12/07 18:17:49;;;;;;;5.15;3.70;;;6.80;99.90;;;;;;1953547;72;22190;-86
2021/12/07 18:20:43;;;;;;;10.35;6.15;;;6.80;99.90;;;;;;1905803;74;21143;-87
2021/12/07 18:23:34;;;;;;;4.67;2.50;;;6.90;99.90;;;;;;1828491;77;21183;-87
2021/12/07 18:26:26;;;;;;;5.95;3.65;;;6.90;99.90;;;;;;1828384;77;21166;-87
2021/12/07 18:29:35;;;;;;;9.00;3.98;;;7.00;99.90;;;;;;1904151;75;21085;-87
2021/12/07 18:32:27;;;;;;;6.92;3.75;;;6.90;99.90;;;;;;1897090;75;21051;-86
2021/12/07 18:35:38;;;;;;;6.33;3.33;;;7.00;99.90;;;;;;1904170;75;21080;-86